Time;durP1;ratioP1;P1;durP2;ratioP2;P2;SDS_P1;SDS_P2;PMS_P1;PMS_P2;Temp;Humidity;BMP_temperature;BMP_pressure;BME280_temperature;BME280_humidity;BME280_pressure;Samples;Min_cycle;Max_cycle;Signal;HPM_P1;HPM_P2
2020/12/08 00:00:24;;;;;;;31.57;11.20;;;;;;;1.91;73.53;98844.20;1686841;84;21295;-90
2020/12/08 00:02:53;;;;;;;24.85;9.25;;;;;;;1.90;74.14;98849.76;1734251;77;21194;-83
2020/12/08 00:05:22;;;;;;;28.65;11.08;;;;;;;1.96;73.21;98856.20;1715013;80;21146;-84
2020/12/08 00:07:50;;;;;;;27.32;10.55;;;;;;;1.92;73.98;98851.91;1736258;77;21158;-85
2020/12/08 00:10:19;;;;;;;20.65;9.23;;;;;;;1.95;74.23;98870.28;1725645;81;21246;-88
2020/12/08 00:12:51;;;;;;;19.75;7.78;;;;;;;2.02;73.73;98870.77;1688883;81;21265;-86
2020/12/08 00:15:19;;;;;;;19.82;7.72;;;;;;;2.03;74.16;98863.92;1693247;83;21243;-84
2020/12/08 00:17:48;;;;;;;16.45;7.92;;;;;;;2.03;74.15;98862.24;1690299;84;21754;-89
2020/12/08 00:20:19;;;;;;;15.85;7.22;;;;;;;2.05;74.18;98866.07;1717326;80;21281;-89
2020/12/08 00:22:47;;;;;;;16.00;7.17;;;;;;;2.10;74.02;98868.25;1716952;83;21189;-91
2020/12/08 00:25:16;;;;;;;17.52;7.72;;;;;;;2.09;74.08;98865.23;1718152;83;21189;-91
2020/12/08 00:27:44;;;;;;;15.60;6.67;;;;;;;2.12;74.06;98866.55;1698681;82;21185;-91
2020/12/08 00:30:17;;;;;;;17.98;7.30;;;;;;;2.13;74.19;98870.41;1700138;83;21328;-89
2020/12/08 00:32:45;;;;;;;21.33;8.23;;;;;;;2.14;73.83;98872.11;1730521;81;21247;-86
2020/12/08 00:35:14;;;;;;;24.65;8.70;;;;;;;2.15;73.80;98874.27;1719291;81;21779;-90
2020/12/08 00:37:44;;;;;;;25.12;8.05;;;;;;;2.11;74.21;98875.95;1692919;82;21147;-85
2020/12/08 00:40:15;;;;;;;14.23;6.72;;;;;;;2.13;74.54;98884.52;1721954;81;21173;-89
2020/12/08 00:42:43;;;;;;;18.02;6.95;;;;;;;2.11;73.83;98883.66;1760562;80;21177;-87
2020/12/08 00:45:13;;;;;;;15.93;6.37;;;;;;;2.11;74.30;98886.22;1718577;80;21293;-82
2020/12/08 00:47:42;;;;;;;14.25;6.20;;;;;;;2.15;74.46;98887.09;1723378;82;21216;-80
2020/12/08 00:50:09;;;;;;;16.05;6.40;;;;;;;2.15;74.55;98890.94;1697438;83;21254;-84
2020/12/08 00:52:37;;;;;;;14.68;6.25;;;;;;;2.18;74.31;98890.94;1700048;80;21322;-88
2020/12/08 00:55:08;;;;;;;20.25;7.03;;;;;;;2.22;74.31;98887.55;1705946;83;21283;-86
2020/12/08 00:57:37;;;;;;;17.95;7.25;;;;;;;2.21;74.63;98888.41;1724337;81;21279;-89
2020/12/08 01:00:06;;;;;;;26.27;9.73;;;;;;;2.24;74.90;98890.13;1741403;81;21780;-88
2020/12/08 01:02:36;;;;;;;24.07;9.88;;;;;;;2.25;74.83;98885.01;1715496;81;21155;-92
2020/12/08 01:05:04;;;;;;;24.25;7.75;;;;;;;2.26;75.20;98890.98;1745916;81;21135;-92
2020/12/08 01:07:31;;;;;;;18.92;8.03;;;;;;;2.27;74.79;98887.55;1749369;81;21284;-92
2020/12/08 01:09:59;;;;;;;19.17;6.58;;;;;;;2.24;74.71;98887.55;1738615;81;21847;-90
2020/12/08 01:12:27;;;;;;;14.47;5.97;;;;;;;2.27;74.19;98892.69;1740128;81;21903;-90
2020/12/08 01:14:55;;;;;;;14.47;5.17;;;;;;;2.27;74.65;98887.55;1737616;81;21166;-90
2020/12/08 01:17:24;;;;;;;11.28;5.10;;;;;;;2.27;74.43;98885.88;1744108;81;21280;-90
2020/12/08 01:19:52;;;;;;;12.28;5.33;;;;;;;2.31;74.34;98886.75;1738556;81;21245;-90
2020/12/08 01:22:20;;;;;;;17.12;6.15;;;;;;;2.32;74.12;98879.03;1739765;81;21268;-91
2020/12/08 01:24:47;;;;;;;12.63;4.85;;;;;;;2.35;74.50;98870.52;1718352;81;21182;-91
2020/12/08 01:27:15;;;;;;;12.73;5.55;;;;;;;2.40;73.78;98870.09;1739024;81;21245;-89
2020/12/08 01:29:44;;;;;;;13.03;5.35;;;;;;;2.39;75.28;98876.09;1703959;83;21297;-88
2020/12/08 01:32:11;;;;;;;11.97;5.05;;;;;;;2.37;75.95;98867.09;1738788;81;21262;-89
2020/12/08 01:34:40;;;;;;;12.80;5.30;;;;;;;2.41;75.97;98868.38;1746407;81;21259;-87
2020/12/08 01:37:09;;;;;;;11.90;5.50;;;;;;;2.47;75.67;98873.13;1743144;81;21109;-87
2020/12/08 01:39:37;;;;;;;12.70;5.42;;;;;;;2.50;75.37;98875.69;1734465;81;21249;-92
2020/12/08 01:42:05;;;;;;;14.73;5.28;;;;;;;2.51;75.42;98881.27;1744443;81;22055;-91
2020/12/08 01:44:34;;;;;;;10.80;5.17;;;;;;;2.51;75.48;98887.69;1738341;81;21150;-91
2020/12/08 01:47:04;;;;;;;10.60;5.05;;;;;;;2.55;75.88;98884.71;1715328;81;21883;-92
2020/12/08 01:49:32;;;;;;;10.50;4.92;;;;;;;2.55;75.50;98888.13;1739416;81;21115;-91
2020/12/08 01:52:00;;;;;;;22.58;7.22;;;;;;;2.53;76.02;98888.98;1715733;82;21181;-90
2020/12/08 01:55:28;;;;;;;15.03;6.33;;;;;;;2.56;75.95;98888.54;1812096;79;22923;-90
2020/12/08 01:57:56;;;;;;;38.40;11.93;;;;;;;2.52;75.24;98893.66;1670705;77;21181;-90
2020/12/08 02:00:25;;;;;;;17.48;6.72;;;;;;;2.49;75.76;98896.23;1655710;81;21189;-90
2020/12/08 02:02:55;;;;;;;12.50;4.42;;;;;;;2.49;74.84;98897.09;1648766;86;21149;-88
2020/12/08 02:05:24;;;;;;;9.05;3.75;;;;;;;2.46;74.64;98898.78;1701900;80;21190;-90
2020/12/08 02:07:52;;;;;;;8.93;3.85;;;;;;;2.44;74.91;98894.91;1716906;77;21164;-83
2020/12/08 02:10:20;;;;;;;7.33;3.08;;;;;;;2.45;74.96;98894.48;1696500;83;22101;-83
2020/12/08 02:12:48;;;;;;;6.90;2.87;;;;;;;2.44;75.29;98894.91;1685196;80;21299;-83
2020/12/08 02:15:17;;;;;;;7.97;3.47;;;;;;;2.46;75.54;98894.49;1617993;80;21154;-83
2020/12/08 02:17:45;;;;;;;10.25;3.77;;;;;;;2.51;75.67;98894.53;1721007;81;21575;-91
2020/12/08 02:20:14;;;;;;;7.45;3.17;;;;;;;2.49;75.97;98901.37;1708802;79;21172;-90
2020/12/08 02:22:42;;;;;;;8.53;3.62;;;;;;;2.54;75.00;98901.80;1684918;79;21158;-89
2020/12/08 02:25:10;;;;;;;8.80;3.70;;;;;;;2.49;75.03;98906.07;1683393;80;21163;-90
2020/12/08 02:27:38;;;;;;;10.53;3.55;;;;;;;2.49;75.06;98902.22;1690203;84;21186;-89
2020/12/08 02:30:08;;;;;;;7.78;2.90;;;;;;;2.44;75.24;98901.33;1710633;80;21614;-89
2020/12/08 02:32:35;;;;;;;11.50;3.87;;;;;;;2.42;75.35;98908.16;1706482;83;21791;-84
2020/12/08 02:35:04;;;;;;;10.63;3.83;;;;;;;2.38;75.79;98906.00;1732697;80;21195;-80
2020/12/08 02:37:36;;;;;;;7.08;3.30;;;;;;;2.41;75.85;98903.02;1727205;82;21238;-85
2020/12/08 02:40:06;;;;;;;8.43;3.33;;;;;;;2.39;76.13;98903.88;1694549;80;21174;-79
2020/12/08 02:42:34;;;;;;;7.75;2.92;;;;;;;2.39;76.22;98900.03;1688263;82;21268;-79
2020/12/08 02:45:03;;;;;;;12.90;3.37;;;;;;;2.42;75.95;98903.03;1681218;85;21283;-79
2020/12/08 02:47:32;;;;;;;8.65;3.67;;;;;;;2.42;75.85;98909.44;1719869;83;21254;-80
2020/12/08 02:50:03;;;;;;;7.08;2.83;;;;;;;2.40;76.27;98904.73;1686751;81;21305;-88
2020/12/08 02:52:34;;;;;;;7.72;3.80;;;;;;;2.39;75.86;98893.63;1634022;82;21159;-89
2020/12/08 02:55:03;;;;;;;8.45;3.42;;;;;;;2.40;76.03;98894.47;1726738;81;21178;-88
2020/12/08 02:57:33;;;;;;;7.40;3.72;;;;;;;2.38;76.04;98903.87;1702117;81;21579;-87
2020/12/08 03:00:04;;;;;;;8.08;3.50;;;;;;;2.33;75.89;98910.70;1691395;81;21283;-86
2020/12/08 03:02:32;;;;;;;9.88;4.10;;;;;;;2.27;76.60;98904.23;1689653;79;21350;-87
2020/12/08 03:05:00;;;;;;;10.08;4.33;;;;;;;2.24;76.52;98906.36;1677589;79;21312;-82
2020/12/08 03:07:28;;;;;;;9.65;3.70;;;;;;;2.21;76.25;98912.78;1671044;79;21206;-86
2020/12/08 03:09:57;;;;;;;7.78;3.77;;;;;;;2.20;76.79;98908.48;1602874;81;21213;-83
2020/12/08 03:12:25;;;;;;;9.53;3.40;;;;;;;2.18;76.64;98908.47;1699089;81;21180;-84
2020/12/08 03:14:53;;;;;;;12.68;4.12;;;;;;;2.14;77.58;98913.14;1686129;81;21932;-83
2020/12/08 03:17:23;;;;;;;8.30;3.47;;;;;;;2.18;76.99;98909.75;1613566;82;21335;-85
2020/12/08 03:19:51;;;;;;;7.08;3.80;;;;;;;2.21;77.29;98911.89;1592674;82;21188;-87
2020/12/08 03:22:19;;;;;;;8.10;3.47;;;;;;;2.22;77.23;98920.04;1621728;84;21214;-88
2020/12/08 03:24:49;;;;;;;8.08;3.65;;;;;;;2.22;77.39;98913.63;1685633;83;21166;-89
2020/12/08 03:27:18;;;;;;;6.90;3.45;;;;;;;2.21;76.63;98917.91;1632975;82;21165;-87
2020/12/08 03:29:48;;;;;;;9.38;4.42;;;;;;;2.15;78.03;98920.44;1655669;81;21309;-89
2020/12/08 03:32:16;;;;;;;9.83;3.67;;;;;;;2.13;77.25;98921.70;1632667;82;21324;-89
2020/12/08 03:34:44;;;;;;;8.38;3.72;;;;;;;2.15;76.46;98929.41;1623376;87;21342;-86
2020/12/08 03:37:11;;;;;;;9.80;3.92;;;;;;;2.05;78.23;98931.46;1669435;81;21649;-80
2020/12/08 03:39:39;;;;;;;8.78;4.03;;;;;;;2.05;78.00;98937.47;1692316;84;21296;-84
2020/12/08 03:42:07;;;;;;;9.05;4.55;;;;;;;2.02;78.27;98928.46;1708217;83;21293;-81
2020/12/08 03:44:37;;;;;;;8.75;3.22;;;;;;;2.01;79.07;98938.30;1728188;82;21298;-83
2020/12/08 03:47:07;;;;;;;12.07;4.17;;;;;;;2.03;78.51;98950.70;1732844;79;21161;-84
2020/12/08 03:49:35;;;;;;;7.97;4.33;;;;;;;2.04;78.73;98948.56;1663130;84;22242;-81
2020/12/08 03:52:04;;;;;;;9.18;4.60;;;;;;;2.04;79.17;98949.84;1688603;80;21209;-83
2020/12/08 03:54:32;;;;;;;9.25;4.08;;;;;;;2.06;78.57;98953.70;1740883;81;21610;-87
2020/12/08 03:57:01;;;;;;;9.68;4.20;;;;;;;2.05;78.98;98950.30;1714505;82;21198;-92
2020/12/08 03:59:29;;;;;;;11.18;5.58;;;;;;;2.09;77.99;98952.43;1704819;83;21162;-89
2020/12/08 04:02:00;;;;;;;9.10;4.10;;;;;;;2.06;78.17;98958.84;1717755;82;21324;-90
2020/12/08 04:04:28;;;;;;;7.90;3.42;;;;;;;1.99;79.44;98958.80;1714875;83;22292;-90
2020/12/08 04:06:56;;;;;;;6.62;2.70;;;;;;;1.96;79.06;98963.89;1689034;84;21332;-85
2020/12/08 04:09:23;;;;;;;10.53;3.85;;;;;;;1.95;79.68;98964.75;1723023;83;21277;-82
2020/12/08 04:11:51;;;;;;;11.33;4.45;;;;;;;1.99;79.31;98969.48;1709224;82;21252;-85
2020/12/08 04:14:20;;;;;;;11.85;4.20;;;;;;;1.99;79.36;98964.36;1692923;84;21266;-87
2020/12/08 04:20:22;;;;;;;7.33;3.83;;;;;;;2.10;80.20;98963.14;1743296;77;23335;-80
2020/12/08 04:22:50;;;;;;;8.30;3.50;;;;;;;2.08;79.79;98961.84;1736535;79;21202;-83
2020/12/08 04:25:18;;;;;;;8.43;3.87;;;;;;;2.10;79.84;98971.68;1733052;80;21310;-82
2020/12/08 04:27:46;;;;;;;8.38;3.77;;;;;;;2.09;80.31;98957.55;1766989;80;21293;-81
2020/12/08 04:30:15;;;;;;;8.30;3.62;;;;;;;2.06;79.86;98962.69;1688256;80;21169;-88
2020/12/08 04:32:46;;;;;;;10.58;4.47;;;;;;;2.02;80.59;98963.08;1729788;81;21434;31
2020/12/08 04:35:13;;;;;;;8.15;3.80;;;;;;;1.99;80.57;98965.20;1705852;82;21327;-88
2020/12/08 04:37:41;;;;;;;8.10;3.60;;;;;;;1.96;80.74;98970.73;1735521;81;21290;-88
2020/12/08 04:40:08;;;;;;;8.58;3.67;;;;;;;1.91;80.91;98971.10;1734638;81;21768;-81
2020/12/08 04:45:39;;;;;;;9.05;3.40;;;;;;;1.81;81.76;98974.45;1680120;80;21398;31
2020/12/08 04:48:07;;;;;;;9.88;4.10;;;;;;;1.75;82.46;98976.12;1743378;77;21200;-83
2020/12/08 04:50:41;;;;;;;12.90;5.10;;;;;;;1.76;81.42;98982.11;1732257;80;21332;31
2020/12/08 04:53:22;;;;;;;7.45;3.72;;;;;;;1.73;81.07;98982.95;1760650;78;21156;31
2020/12/08 04:55:50;;;;;;;8.48;4.45;;;;;;;1.75;81.48;98986.78;1804934;80;21276;-84
2020/12/08 04:58:18;;;;;;;13.05;5.10;;;;;;;1.69;81.83;98979.92;1766905;80;21150;-83
2020/12/08 05:00:46;;;;;;;11.00;4.58;;;;;;;1.65;82.68;98983.71;1738687;81;21278;-85
2020/12/08 05:03:14;;;;;;;15.70;5.30;;;;;;;1.63;83.42;98981.13;1765499;81;21275;-85
2020/12/08 05:05:43;;;;;;;10.32;4.75;;;;;;;1.62;83.12;98988.39;1702847;83;21318;-84
2020/12/08 05:08:12;;;;;;;7.53;3.98;;;;;;;1.60;83.17;98990.08;1754982;80;21112;-85
2020/12/08 05:10:48;;;;;;;11.43;4.25;;;;;;;1.56;82.99;98990.47;1756512;78;22767;31
2020/12/08 05:13:33;;;;;;;11.75;4.40;;;;;;;1.58;82.22;98990.06;1733504;79;21269;31
2020/12/08 05:16:11;;;;;;;8.73;4.40;;;;;;;1.57;82.60;98997.33;1699625;78;21220;31
2020/12/08 05:18:40;;;;;;;9.00;4.10;;;;;;;1.57;82.50;98997.73;1729277;80;21277;-82
2020/12/08 05:21:12;;;;;;;10.03;4.40;;;;;;;1.55;82.55;98999.42;1762091;78;21249;-84
2020/12/08 05:33:09;;;;;;;14.53;7.35;;;;;;;1.54;82.52;99004.97;1711575;79;21154;31
2020/12/08 05:35:37;;;;;;;12.07;6.25;;;;;;;1.48;83.39;99004.06;1634427;84;21346;-83
2020/12/08 05:38:08;;;;;;;12.33;5.92;;;;;;;1.44;84.62;99007.44;1739364;80;22222;-84
2020/12/08 05:40:36;;;;;;;12.63;5.87;;;;;;;1.45;83.47;99005.30;1720864;80;21156;-87
2020/12/08 05:43:04;;;;;;;13.22;6.22;;;;;;;1.36;83.73;99003.09;1723927;82;21390;-87
2020/12/08 05:45:32;;;;;;;12.33;5.50;;;;;;;1.36;83.95;99009.48;1677081;82;21345;-90
2020/12/08 05:48:00;;;;;;;11.95;5.90;;;;;;;1.34;84.25;99012.45;1666550;85;21313;-85
2020/12/08 05:50:34;;;;;;;12.47;5.47;;;;;;;1.28;83.99;99014.10;1690493;82;21304;31
2020/12/08 05:53:05;;;;;;;10.35;4.83;;;;;;;1.25;83.96;99011.06;1721315;80;21267;31
2020/12/08 05:58:42;;;;;;;14.98;5.45;;;;;;;1.23;85.37;99016.59;1715770;79;21172;-84
2020/12/08 06:01:33;;;;;;;8.90;4.67;;;;;;;1.25;85.44;99012.78;1743420;78;21328;31
2020/12/08 06:04:09;;;;;;;21.43;9.43;;;;;;;1.29;84.77;99016.66;1724034;78;22377;31
2020/12/08 06:06:51;;;;;;;15.83;6.70;;;;;;;1.32;84.71;99020.55;1727474;81;21227;31
2020/12/08 06:16:03;;;;;;;10.43;5.05;;;;;;;1.37;84.21;99033.00;1751293;78;21081;-88
2020/12/08 06:18:38;;;;;;;9.48;4.78;;;;;;;1.34;84.51;99035.52;1737711;79;21511;-86
2020/12/08 06:21:27;;;;;;;8.90;4.08;;;;;;;1.34;85.29;99035.52;1715796;80;21151;-85
2020/12/08 06:33:20;;;;;;;11.22;5.40;;;;;;;1.31;85.52;99047.02;1701025;79;21552;31
2020/12/08 06:39:08;;;;;;;15.73;6.70;;;;;;;1.32;85.24;99051.72;1743985;79;21277;31
2020/12/08 06:41:44;;;;;;;11.20;5.58;;;;;;;1.35;85.11;99053.89;1756300;78;21224;31
2020/12/08 06:44:20;;;;;;;14.45;6.70;;;;;;;1.36;84.24;99052.19;1723355;78;21288;-82
2020/12/08 06:49:49;;;;;;;13.05;6.22;;;;;;;1.35;84.97;99056.86;1714579;80;22526;31
2020/12/08 06:52:36;;;;;;;14.57;6.30;;;;;;;1.35;85.45;99057.73;1719181;79;22770;31
2020/12/08 06:58:17;;;;;;;13.95;7.65;;;;;;;1.43;84.97;99060.36;1725044;82;21578;-88
2020/12/08 07:00:45;;;;;;;18.27;8.63;;;;;;;1.44;85.23;99055.69;1746691;82;21272;-91
2020/12/08 07:03:17;;;;;;;18.02;8.90;;;;;;;1.37;85.08;99050.92;1734060;82;21288;-87
2020/12/08 07:05:45;;;;;;;15.28;6.58;;;;;;;1.48;84.72;99069.39;1700800;81;22319;-88
2020/12/08 07:08:16;;;;;;;16.40;7.45;;;;;;;1.44;85.46;99074.90;1762298;80;21286;-84
2020/12/08 07:10:43;;;;;;;17.37;7.15;;;;;;;1.46;85.59;99062.12;1715674;81;21260;-85
2020/12/08 07:13:16;;;;;;;18.65;7.45;;;;;;;1.49;85.88;99073.66;1715992;79;21379;-80
2020/12/08 07:15:44;;;;;;;11.97;6.13;;;;;;;1.54;85.18;99068.18;1732508;81;21107;-85
2020/12/08 07:18:18;;;;;;;17.07;7.62;;;;;;;1.60;84.57;99073.36;1718445;79;21223;31
2020/12/08 07:20:46;;;;;;;16.05;7.55;;;;;;;1.58;85.48;99072.06;1691969;80;21300;-82
2020/12/08 07:23:21;;;;;;;14.03;6.03;;;;;;;1.64;85.15;99072.55;1732744;78;21302;31
2020/12/08 07:35:28;;;;;;;20.70;8.33;;;;;;;1.83;84.83;99076.58;1754545;77;21625;-88
2020/12/08 07:54:30;;;;;;;9.70;4.50;;;;;;;1.89;83.57;99084.32;1767007;78;21128;-86
2020/12/08 08:00:00;;;;;;;11.70;6.08;;;;;;;1.96;84.72;99080.98;1732765;80;21162;-84
2020/12/08 08:02:52;;;;;;;12.80;6.25;;;;;;;1.99;84.35;99084.44;1747009;78;21225;31
2020/12/08 08:05:20;;;;;;;16.35;7.45;;;;;;;2.03;84.82;99087.90;1770888;76;21183;-83
2020/12/08 08:07:48;;;;;;;13.93;7.08;;;;;;;2.15;84.43;99080.30;1841858;76;21251;-85
2020/12/08 08:10:16;;;;;;;17.02;6.60;;;;;;;2.22;84.79;99079.92;1833556;76;21329;-86
2020/12/08 08:12:43;;;;;;;16.17;7.90;;;;;;;2.35;83.73;99080.90;1832705;77;21243;-88
2020/12/08 08:15:11;;;;;;;12.70;6.33;;;;;;;2.35;84.29;99085.59;1834212;77;21255;-89
2020/12/08 08:17:38;;;;;;;11.57;5.72;;;;;;;2.45;83.71;99086.93;1828822;77;21694;-90
2020/12/08 08:20:07;;;;;;;10.80;5.45;;;;;;;2.38;83.75;99093.30;1788455;78;21156;-90
2020/12/08 08:22:35;;;;;;;10.30;5.40;;;;;;;2.42;83.61;99092.91;1754244;80;21184;-89
2020/12/08 08:25:04;;;;;;;10.20;5.40;;;;;;;2.48;82.96;99095.95;1794933;77;21260;-90
2020/12/08 08:27:31;;;;;;;12.35;5.55;;;;;;;2.39;83.09;99089.05;1756518;81;21275;-86
2020/12/08 08:29:59;;;;;;;8.33;4.42;;;;;;;2.45;82.24;99092.95;1757391;81;21297;-91
2020/12/08 08:32:26;;;;;;;11.75;4.70;;;;;;;2.38;82.96;99097.58;1759615;80;21299;-87
2020/12/08 08:34:54;;;;;;;13.98;5.00;;;;;;;2.42;82.79;99102.31;1761848;80;21281;-85
2020/12/08 08:37:21;;;;;;;10.25;4.60;;;;;;;2.38;83.51;99095.02;1791302;79;21276;-87
2020/12/08 08:39:50;;;;;;;10.23;4.60;;;;;;;2.42;83.80;99101.03;1758354;80;21289;-86
2020/12/08 08:42:17;;;;;;;10.45;5.00;;;;;;;2.45;83.26;99102.33;1764423;80;21285;-87
2020/12/08 08:44:45;;;;;;;32.75;12.23;;;;;;;2.49;83.40;99101.09;1751967;80;21267;-86
2020/12/08 08:47:13;;;;;;;12.25;5.85;;;;;;;2.52;83.05;99102.39;1758209;80;21328;-84
2020/12/08 08:49:40;;;;;;;15.03;6.67;;;;;;;2.59;83.46;99109.30;1765343;80;21192;-86
2020/12/08 08:52:08;;;;;;;18.15;5.83;;;;;;;2.68;83.20;99099.50;1763804;80;21567;-87
2020/12/08 08:54:35;;;;;;;13.93;6.05;;;;;;;2.71;82.76;99099.97;1760815;80;21313;-91
2020/12/08 08:57:03;;;;;;;13.75;5.65;;;;;;;2.73;82.60;99101.69;1784438;79;21258;-88
2020/12/08 08:59:30;;;;;;;15.00;6.03;;;;;;;2.67;82.82;99104.22;1758030;80;22269;-91
2020/12/08 09:01:57;;;;;;;12.47;6.28;;;;;;;2.72;82.67;99101.24;1758439;80;21336;-91
2020/12/08 09:04:25;;;;;;;169.57;67.25;;;;;;;2.77;82.57;99096.16;1769836;80;21638;-89
2020/12/08 09:06:52;;;;;;;32.45;15.32;;;;;;;2.81;82.51;99090.19;1765080;80;21195;-92
2020/12/08 09:09:20;;;;;;;21.87;10.82;;;;;;;2.81;83.37;99089.34;1760552;81;21324;-92
2020/12/08 09:11:47;;;;;;;14.45;7.60;;;;;;;2.83;82.23;99086.36;1769796;80;21258;-90
2020/12/08 09:14:16;;;;;;;9.15;4.58;;;;;;;2.81;82.43;99088.05;1747999;80;21353;-91
2020/12/08 09:16:45;;;;;;;26.65;12.25;;;;;;;2.86;82.21;99088.92;1750741;81;21217;-91
2020/12/08 09:19:13;;;;;;;23.38;7.53;;;;;;;2.87;82.68;99086.37;1760954;78;21291;-89
2020/12/08 09:21:41;;;;;;;10.55;4.55;;;;;;;2.95;82.37;99084.70;1765005;79;21133;-88
2020/12/08 09:24:08;;;;;;;23.65;9.95;;;;;;;2.96;81.97;99083.87;1761454;81;21164;-84
2020/12/08 09:26:40;;;;;;;21.17;10.30;;;;;;;2.98;82.22;99078.31;1757370;79;21225;-90
2020/12/08 09:29:08;;;;;;;10.72;5.53;;;;;;;3.00;82.73;99077.01;1739898;78;21485;-86
2020/12/08 09:31:56;;;;;;;21.27;9.18;;;;;;;3.03;82.31;99079.61;1746228;78;21299;31
2020/12/08 09:34:41;;;;;;;15.35;8.00;;;;;;;3.13;82.25;99083.08;1665650;80;22864;31
2020/12/08 09:37:09;;;;;;;13.60;6.45;;;;;;;3.09;81.93;99082.20;1816119;76;21574;-93
2020/12/08 09:39:37;;;;;;;17.73;8.85;;;;;;;3.09;82.39;99086.49;1856081;76;21276;-91
2020/12/08 09:42:04;;;;;;;16.15;7.30;;;;;;;3.17;82.30;99085.66;1855178;76;21290;-93
2020/12/08 09:44:32;;;;;;;15.60;6.97;;;;;;;3.14;82.37;99091.20;1852137;77;21280;-93
2020/12/08 09:46:59;;;;;;;16.45;8.68;;;;;;;3.15;82.56;99087.37;1857309;76;21255;-93
2020/12/08 09:49:27;;;;;;;16.85;7.20;;;;;;;3.17;81.64;99091.23;1847659;77;21732;-92
2020/12/08 09:51:55;;;;;;;15.25;6.62;;;;;;;3.11;81.95;99089.92;1856865;76;21263;-93
2020/12/08 09:54:23;;;;;;;14.65;6.90;;;;;;;3.06;81.94;99085.17;1832450;75;21133;-93
2020/12/08 09:56:50;;;;;;;14.85;7.50;;;;;;;3.09;81.70;99082.20;1835445;77;21242;-92
2020/12/08 09:59:18;;;;;;;13.93;6.55;;;;;;;3.12;82.35;99087.37;1798635;78;21343;-93
2020/12/08 10:01:45;;;;;;;13.05;5.83;;;;;;;3.20;82.58;99087.37;1827691;78;21671;-93
2020/12/08 10:04:12;;;;;;;10.15;5.17;;;;;;;3.28;82.13;99083.56;1830634;78;21198;-92
2020/12/08 10:06:42;;;;;;;13.28;6.30;;;;;;;3.31;81.62;99087.44;1764286;76;21322;-89
2020/12/08 10:09:10;;;;;;;13.15;5.47;;;;;;;3.31;81.22;99085.72;1758580;80;21247;-93
2020/12/08 10:11:38;;;;;;;14.05;5.90;;;;;;;3.39;81.00;99086.61;1797138;80;21280;-92
2020/12/08 10:14:05;;;;;;;13.25;6.17;;;;;;;3.41;81.36;99081.91;1758118;80;21219;-93
2020/12/08 10:19:46;;;;;;;11.40;5.08;;;;;;;3.50;80.72;99079.36;1773718;77;21445;-91
2020/12/08 10:22:14;;;;;;;14.07;5.30;;;;;;;3.64;81.43;99071.28;1710357;80;21286;-92
2020/12/08 10:24:43;;;;;;;7.67;4.35;;;;;;;3.76;81.21;99072.59;1706295;84;21732;-93
2020/12/08 10:27:11;;;;;;;11.83;6.65;;;;;;;3.75;80.22;99063.14;1765888;79;21291;-93
2020/12/08 10:29:39;;;;;;;8.55;4.92;;;;;;;3.81;80.08;99071.73;1694713;78;21146;-91
2020/12/08 10:32:06;;;;;;;9.43;4.97;;;;;;;3.91;80.15;99069.60;1686973;84;21169;-93
2020/12/08 10:34:34;;;;;;;11.75;6.70;;;;;;;3.86;79.91;99067.03;1686647;83;21248;-91
2020/12/08 10:37:02;;;;;;;11.78;6.25;;;;;;;3.92;79.61;99064.88;1687237;84;21348;-93
2020/12/08 10:39:29;;;;;;;11.20;5.72;;;;;;;3.97;79.68;99063.17;1689503;84;21189;-91
2020/12/08 10:41:57;;;;;;;11.30;5.50;;;;;;;3.92;79.17;99065.75;1692814;84;21126;-92
2020/12/08 10:44:29;;;;;;;20.27;7.10;;;;;;;4.03;79.02;99063.61;1687679;84;21197;-92
2020/12/08 10:46:56;;;;;;;22.55;9.48;;;;;;;4.00;78.92;99064.48;1766816;79;21277;-92
2020/12/08 10:49:24;;;;;;;10.88;5.47;;;;;;;3.98;79.21;99062.34;1783043;80;21291;-92
2020/12/08 10:51:52;;;;;;;9.85;5.60;;;;;;;4.08;79.03;99066.62;1786137;80;21297;-93
2020/12/08 10:54:22;;;;;;;15.28;8.43;;;;;;;4.07;78.41;99063.61;1779679;80;21285;-92
2020/12/08 10:56:53;;;;;;;18.20;9.88;;;;;;;4.02;79.01;99062.77;1751994;79;21724;-92
2020/12/08 10:59:21;;;;;;;11.03;5.10;;;;;;;4.09;79.48;99063.18;1763053;78;21263;-91
2020/12/08 11:01:50;;;;;;;14.25;6.22;;;;;;;4.09;78.74;99065.75;1762625;80;21291;-91
2020/12/08 11:04:18;;;;;;;17.23;8.03;;;;;;;4.04;78.62;99066.59;1762368;80;21279;-92
2020/12/08 11:06:45;;;;;;;27.98;14.05;;;;;;;4.12;79.27;99067.49;1766456;80;21190;-91
2020/12/08 11:09:14;;;;;;;13.35;6.37;;;;;;;4.26;79.29;99064.89;1747318;80;21144;-91
2020/12/08 11:11:41;;;;;;;17.05;7.65;;;;;;;4.23;78.76;99058.48;1720103;83;21137;-91
2020/12/08 11:14:09;;;;;;;9.85;4.92;;;;;;;4.30;79.08;99059.77;1740001;82;21188;-89
2020/12/08 11:16:37;;;;;;;9.98;4.70;;;;;;;4.21;78.33;99057.18;1731300;80;21175;-91
2020/12/08 11:19:04;;;;;;;26.05;10.72;;;;;;;4.35;78.49;99055.89;1730107;82;21177;-90
2020/12/08 11:21:32;;;;;;;18.90;8.65;;;;;;;4.45;78.08;99061.89;1745486;79;21143;-92
2020/12/08 11:24:00;;;;;;;19.55;9.33;;;;;;;4.45;78.00;99061.45;1742911;82;21772;-90
2020/12/08 11:26:29;;;;;;;9.28;5.10;;;;;;;4.51;78.07;99060.59;1803534;77;21699;-89
2020/12/08 11:28:58;;;;;;;12.13;6.90;;;;;;;4.47;77.45;99048.15;1704941;77;21162;-89
2020/12/08 11:31:26;;;;;;;17.17;7.50;;;;;;;4.55;77.91;99051.56;1798800;78;21212;-92
2020/12/08 11:33:54;;;;;;;15.90;6.40;;;;;;;4.62;77.34;99051.15;1808352;78;21107;-91
2020/12/08 11:36:21;;;;;;;14.15;6.22;;;;;;;4.66;77.48;99049.44;1802823;79;21168;-89
2020/12/08 11:38:49;;;;;;;10.13;4.75;;;;;;;4.66;77.36;99045.57;1805465;79;21178;-90
2020/12/08 11:41:17;;;;;;;13.58;5.58;;;;;;;4.70;77.39;99042.97;1755570;77;21138;-90
2020/12/08 11:43:45;;;;;;;7.35;4.15;;;;;;;4.77;76.68;99043.40;1723610;82;21423;-90
2020/12/08 11:46:13;;;;;;;13.03;5.67;;;;;;;4.64;75.77;99036.55;1787225;78;21242;-92
2020/12/08 11:48:42;;;;;;;64.90;25.12;;;;;;;4.67;76.32;99033.95;1763134;77;21278;-90
2020/12/08 11:51:10;;;;;;;37.95;15.35;;;;;;;4.75;77.13;99033.94;1792331;77;21569;-90
2020/12/08 11:53:38;;;;;;;10.53;5.83;;;;;;;4.88;76.75;99033.49;1744956;79;21119;-91
2020/12/08 11:56:06;;;;;;;11.25;5.72;;;;;;;4.95;75.85;99035.16;1799215;76;21222;-90
2020/12/08 11:58:35;;;;;;;12.00;4.83;;;;;;;4.90;74.85;99042.07;1712612;77;21130;-90
2020/12/08 12:01:03;;;;;;;8.33;4.20;;;;;;;5.11;75.55;99032.10;1748526;81;21156;-90
2020/12/08 12:03:30;;;;;;;9.73;4.58;;;;;;;5.00;75.47;99029.58;1749983;80;21574;-91
2020/12/08 12:05:57;;;;;;;9.65;4.95;;;;;;;5.08;75.98;99030.84;1744264;82;21151;-92
2020/12/08 12:08:25;;;;;;;10.85;4.60;;;;;;;5.17;74.55;99030.78;1746065;81;21256;-90
2020/12/08 12:10:52;;;;;;;6.97;4.08;;;;;;;5.27;74.28;99029.91;1740015;81;21547;-91
2020/12/08 12:13:20;;;;;;;13.62;6.47;;;;;;;5.43;76.22;99028.52;1733266;80;21094;-89
2020/12/08 12:15:47;;;;;;;9.93;4.83;;;;;;;5.40;74.60;99022.95;1729903;81;21156;-92
2020/12/08 12:18:14;;;;;;;10.38;4.47;;;;;;;5.50;75.17;99023.77;1793853;80;21916;-92
2020/12/08 12:20:41;;;;;;;8.60;5.22;;;;;;;5.50;72.64;99035.37;1797434;79;21258;-91
2020/12/08 12:23:09;;;;;;;10.00;5.10;;;;;;;5.40;72.72;99023.39;1791555;79;21132;-91
2020/12/08 12:25:37;;;;;;;10.85;5.62;;;;;;;5.38;72.94;99024.24;1801412;79;21295;-91
2020/12/08 12:28:04;;;;;;;13.45;6.28;;;;;;;5.37;73.27;99026.82;1828222;76;21140;-92
2020/12/08 12:30:32;;;;;;;11.18;5.95;;;;;;;5.47;73.70;99025.94;1835093;77;21128;-92
2020/12/08 12:33:00;;;;;;;8.28;4.72;;;;;;;5.58;72.22;99027.14;1826077;76;21240;-92
2020/12/08 12:35:27;;;;;;;12.58;6.75;;;;;;;5.58;71.77;99022.84;1834847;78;21281;-92
2020/12/08 12:37:55;;;;;;;18.12;6.45;;;;;;;5.55;72.28;99021.99;1835555;77;21249;-90
2020/12/08 12:40:22;;;;;;;14.90;6.85;;;;;;;5.51;72.08;99022.47;1831875;78;21255;-91
2020/12/08 12:42:50;;;;;;;17.15;7.65;;;;;;;5.42;72.00;99021.66;1831030;78;21587;-92
2020/12/08 12:45:17;;;;;;;13.18;7.53;;;;;;;5.31;72.63;99022.58;1834315;77;21136;-93
2020/12/08 12:47:45;;;;;;;20.57;8.95;;;;;;;5.29;72.65;99020.44;1830700;78;21271;-92
2020/12/08 12:50:14;;;;;;;13.98;6.03;;;;;;;5.25;72.63;99019.16;1795192;76;21837;-91
2020/12/08 12:52:41;;;;;;;18.00;8.63;;;;;;;5.12;72.31;99019.22;1780428;78;21148;-89
2020/12/08 12:55:09;;;;;;;13.50;7.20;;;;;;;5.08;72.87;99026.53;1790695;78;21291;-91
2020/12/08 12:57:36;;;;;;;11.75;5.20;;;;;;;5.00;73.27;99025.72;1788052;79;21334;-91
2020/12/08 13:00:05;;;;;;;14.85;7.28;;;;;;;5.08;73.82;99024.40;1787806;78;21168;-93
2020/12/08 13:02:33;;;;;;;10.98;6.08;;;;;;;5.04;74.23;99018.84;1777350;76;21152;-93